Startpagina
METAR-TAF:

METAR-TAF

Vliegvelden :

Aeropuerto Adolfo Suárez Madrid-Barajas

Madrid, Spanje

breedte: 40-27N, lengte: 003-33W, hoogte: 609 m

Actueel weer

Dit bericht is 20 minuten geleden gemaakt, om 15:00 UTC
Wind 8 kt uit het noordnoordoosten, variërend tussen het noordwesten en het oostnoordoosten
Temperatuur 31°C
Vochtigheid 29%
Druk 1020 hPa
Zicht 10 km of meer
geen wolken onder 1500 m en geen cumulonimbus

METAR: LEMD 181500Z 02008KT 320V060 CAVOK 31/11 Q1020 NOSIG

Tijdstip: 17:20 (15:20 UTC)

Verwachting

Dit bericht is 4 uur en het 20 minuten geleden gemaakt, om 11:00 UTC
Verwachting geldig van 18 om 12 UTC tot 19 om 18 UTC
Wind 8 kt uit het oostnoordoosten
Zicht 10 km of meer
geen wolken onder 1500 m en geen cumulonimbus
Tijdelijke
van 19 om 11 UTC tot 19 om 18 UTC
Wind 8 kt uit het zuidzuidoosten

TAF: LEMD 181100Z 1812/1918 06008KT CAVOK TX32/1815Z TN16/1906Z TEMPO 1911/1918 16008KT

Waarnemingen en weersverwachtingen van meer dan 4000 vliegvelden (METAR en TAF).

De beschikbare stations zijn de gele en rode punten op de kaart.

Ga met uw muis naar het station om de naam te zien.

Klik dan om waarnemingen en weersverwachtingen te zien.

kaart wijzigen: klik op de groene knoppen met een zwart kruis om in te zoomen, op de groene knop met een streepje om uit te zoomen of op de groene pijlen voor aangrenzende kaarten.


METAR-TAF: